sensor_id;sensor_type;location;lat;lon;timestamp;P1;durP1;ratioP1;P2;durP2;ratioP2
75012;SDS011;63567;49.956;20.130;2023-06-22T00:00:16;7.28;;;6.30;;
75012;SDS011;63567;49.956;20.130;2023-06-22T00:02:42;6.38;;;5.78;;
75012;SDS011;63567;49.956;20.130;2023-06-22T00:05:07;7.47;;;6.57;;
75012;SDS011;63567;49.956;20.130;2023-06-22T00:07:32;7.27;;;6.57;;
75012;SDS011;63567;49.956;20.130;2023-06-22T00:09:58;7.73;;;6.57;;
75012;SDS011;63567;49.956;20.130;2023-06-22T00:12:23;7.00;;;6.30;;
75012;SDS011;63567;49.956;20.130;2023-06-22T00:14:48;11.03;;;5.63;;
75012;SDS011;63567;49.956;20.130;2023-06-22T00:17:13;9.47;;;6.90;;
75012;SDS011;63567;49.956;20.130;2023-06-22T00:19:39;8.33;;;6.87;;
75012;SDS011;63567;49.956;20.130;2023-06-22T00:22:05;7.78;;;6.93;;
75012;SDS011;63567;49.956;20.130;2023-06-22T00:24:30;7.93;;;7.13;;
75012;SDS011;63567;49.956;20.130;2023-06-22T00:26:56;7.40;;;6.57;;
75012;SDS011;63567;49.956;20.130;2023-06-22T00:29:21;8.67;;;6.83;;
75012;SDS011;63567;49.956;20.130;2023-06-22T00:31:46;7.27;;;6.47;;
75012;SDS011;63567;49.956;20.130;2023-06-22T00:34:11;6.97;;;5.93;;
75012;SDS011;63567;49.956;20.130;2023-06-22T00:36:37;7.80;;;6.47;;
75012;SDS011;63567;49.956;20.130;2023-06-22T00:39:02;8.30;;;6.30;;
75012;SDS011;63567;49.956;20.130;2023-06-22T00:41:28;7.07;;;6.35;;
75012;SDS011;63567;49.956;20.130;2023-06-22T00:43:54;8.17;;;6.73;;
75012;SDS011;63567;49.956;20.130;2023-06-22T00:46:19;8.18;;;6.10;;
75012;SDS011;63567;49.956;20.130;2023-06-22T00:48:46;7.60;;;6.80;;
75012;SDS011;63567;49.956;20.130;2023-06-22T00:51:11;8.35;;;6.53;;
75012;SDS011;63567;49.956;20.130;2023-06-22T00:53:36;8.05;;;7.25;;
75012;SDS011;63567;49.956;20.130;2023-06-22T00:56:02;7.55;;;6.60;;
75012;SDS011;63567;49.956;20.130;2023-06-22T00:58:29;9.30;;;6.38;;
75012;SDS011;63567;49.956;20.130;2023-06-22T01:00:55;9.15;;;6.95;;
75012;SDS011;63567;49.956;20.130;2023-06-22T01:03:20;7.97;;;6.47;;
75012;SDS011;63567;49.956;20.130;2023-06-22T01:05:45;7.97;;;7.17;;
75012;SDS011;63567;49.956;20.130;2023-06-22T01:08:22;10.00;;;6.38;;
75012;SDS011;63567;49.956;20.130;2023-06-22T01:11:03;9.20;;;6.82;;
75012;SDS011;63567;49.956;20.130;2023-06-22T01:13:54;8.45;;;6.63;;
75012;SDS011;63567;49.956;20.130;2023-06-22T01:16:29;8.50;;;5.97;;
75012;SDS011;63567;49.956;20.130;2023-06-22T01:18:57;8.15;;;6.32;;
75012;SDS011;63567;49.956;20.130;2023-06-22T01:21:38;8.52;;;7.05;;
75012;SDS011;63567;49.956;20.130;2023-06-22T01:24:23;7.13;;;6.00;;
75012;SDS011;63567;49.956;20.130;2023-06-22T01:27:11;8.55;;;6.43;;
75012;SDS011;63567;49.956;20.130;2023-06-22T01:29:47;8.50;;;6.40;;
75012;SDS011;63567;49.956;20.130;2023-06-22T01:32:16;8.75;;;6.57;;
75012;SDS011;63567;49.956;20.130;2023-06-22T01:34:42;8.88;;;6.47;;
75012;SDS011;63567;49.956;20.130;2023-06-22T01:37:08;9.30;;;6.95;;
75012;SDS011;63567;49.956;20.130;2023-06-22T01:39:34;7.70;;;5.82;;
75012;SDS011;63567;49.956;20.130;2023-06-22T01:42:00;8.75;;;6.70;;
75012;SDS011;63567;49.956;20.130;2023-06-22T01:44:25;8.10;;;6.57;;
75012;SDS011;63567;49.956;20.130;2023-06-22T01:46:51;8.93;;;6.43;;
75012;SDS011;63567;49.956;20.130;2023-06-22T01:49:17;9.45;;;5.97;;
75012;SDS011;63567;49.956;20.130;2023-06-22T01:51:43;9.27;;;6.63;;
75012;SDS011;63567;49.956;20.130;2023-06-22T01:54:08;8.05;;;5.80;;
75012;SDS011;63567;49.956;20.130;2023-06-22T01:56:34;7.73;;;6.60;;
75012;SDS011;63567;49.956;20.130;2023-06-22T01:59:10;8.85;;;6.45;;
75012;SDS011;63567;49.956;20.130;2023-06-22T02:01:47;7.20;;;5.70;;
75012;SDS011;63567;49.956;20.130;2023-06-22T02:04:27;9.00;;;6.90;;
75012;SDS011;63567;49.956;20.130;2023-06-22T02:06:56;7.57;;;6.47;;
75012;SDS011;63567;49.956;20.130;2023-06-22T02:09:25;8.50;;;6.35;;
75012;SDS011;63567;49.956;20.130;2023-06-22T02:11:54;6.97;;;5.85;;
75012;SDS011;63567;49.956;20.130;2023-06-22T02:14:21;8.88;;;6.05;;
75012;SDS011;63567;49.956;20.130;2023-06-22T02:16:48;7.32;;;6.45;;
75012;SDS011;63567;49.956;20.130;2023-06-22T02:19:14;8.25;;;6.28;;
75012;SDS011;63567;49.956;20.130;2023-06-22T02:21:40;7.10;;;5.68;;
75012;SDS011;63567;49.956;20.130;2023-06-22T02:24:06;9.13;;;6.57;;
75012;SDS011;63567;49.956;20.130;2023-06-22T02:26:31;9.93;;;6.70;;
75012;SDS011;63567;49.956;20.130;2023-06-22T02:28:57;9.18;;;7.28;;
75012;SDS011;63567;49.956;20.130;2023-06-22T02:31:23;8.77;;;7.43;;
75012;SDS011;63567;49.956;20.130;2023-06-22T02:33:55;9.52;;;7.85;;
75012;SDS011;63567;49.956;20.130;2023-06-22T02:36:24;8.00;;;7.20;;
75012;SDS011;63567;49.956;20.130;2023-06-22T02:38:51;9.77;;;7.72;;
75012;SDS011;63567;49.956;20.130;2023-06-22T02:41:17;8.07;;;7.20;;
75012;SDS011;63567;49.956;20.130;2023-06-22T02:43:44;9.52;;;7.22;;
75012;SDS011;63567;49.956;20.130;2023-06-22T02:46:10;7.82;;;7.03;;
75012;SDS011;63567;49.956;20.130;2023-06-22T02:48:36;9.07;;;7.38;;
75012;SDS011;63567;49.956;20.130;2023-06-22T02:51:01;8.50;;;7.60;;
75012;SDS011;63567;49.956;20.130;2023-06-22T02:53:26;8.97;;;7.30;;
75012;SDS011;63567;49.956;20.130;2023-06-22T02:55:51;8.47;;;7.20;;
75012;SDS011;63567;49.956;20.130;2023-06-22T02:58:17;9.17;;;7.37;;
75012;SDS011;63567;49.956;20.130;2023-06-22T03:00:42;8.70;;;6.83;;
75012;SDS011;63567;49.956;20.130;2023-06-22T03:03:07;9.33;;;6.83;;
75012;SDS011;63567;49.956;20.130;2023-06-22T03:05:32;9.40;;;7.70;;
75012;SDS011;63567;49.956;20.130;2023-06-22T03:08:00;8.27;;;6.72;;
75012;SDS011;63567;49.956;20.130;2023-06-22T03:10:25;7.95;;;7.10;;
75012;SDS011;63567;49.956;20.130;2023-06-22T03:12:51;8.63;;;5.68;;
75012;SDS011;63567;49.956;20.130;2023-06-22T03:15:16;8.03;;;6.33;;
75012;SDS011;63567;49.956;20.130;2023-06-22T03:17:42;8.85;;;6.82;;
75012;SDS011;63567;49.956;20.130;2023-06-22T03:20:08;7.50;;;5.80;;
75012;SDS011;63567;49.956;20.130;2023-06-22T03:22:38;10.52;;;9.55;;
75012;SDS011;63567;49.956;20.130;2023-06-22T03:25:04;8.75;;;7.85;;
75012;SDS011;63567;49.956;20.130;2023-06-22T03:27:36;8.52;;;7.63;;
75012;SDS011;63567;49.956;20.130;2023-06-22T03:30:01;8.35;;;6.80;;
75012;SDS011;63567;49.956;20.130;2023-06-22T03:32:27;7.07;;;6.05;;
75012;SDS011;63567;49.956;20.130;2023-06-22T03:34:53;7.10;;;6.30;;
75012;SDS011;63567;49.956;20.130;2023-06-22T03:37:18;9.32;;;6.63;;
75012;SDS011;63567;49.956;20.130;2023-06-22T03:39:43;9.27;;;6.40;;
75012;SDS011;63567;49.956;20.130;2023-06-22T03:42:09;8.33;;;6.97;;
75012;SDS011;63567;49.956;20.130;2023-06-22T03:44:34;7.30;;;6.60;;
75012;SDS011;63567;49.956;20.130;2023-06-22T03:47:01;8.02;;;6.25;;
75012;SDS011;63567;49.956;20.130;2023-06-22T03:49:27;7.95;;;7.18;;
75012;SDS011;63567;49.956;20.130;2023-06-22T03:51:52;7.17;;;6.47;;
75012;SDS011;63567;49.956;20.130;2023-06-22T03:54:17;8.53;;;6.57;;
75012;SDS011;63567;49.956;20.130;2023-06-22T03:56:43;8.13;;;7.17;;
75012;SDS011;63567;49.956;20.130;2023-06-22T03:59:08;9.27;;;7.17;;
75012;SDS011;63567;49.956;20.130;2023-06-22T04:01:33;8.47;;;5.93;;
75012;SDS011;63567;49.956;20.130;2023-06-22T04:03:58;8.87;;;6.10;;
75012;SDS011;63567;49.956;20.130;2023-06-22T04:06:23;6.87;;;6.00;;
75012;SDS011;63567;49.956;20.130;2023-06-22T04:08:49;7.17;;;5.83;;
75012;SDS011;63567;49.956;20.130;2023-06-22T04:11:16;8.60;;;6.47;;
75012;SDS011;63567;49.956;20.130;2023-06-22T04:13:42;6.57;;;5.88;;
75012;SDS011;63567;49.956;20.130;2023-06-22T04:16:08;8.43;;;6.60;;
75012;SDS011;63567;49.956;20.130;2023-06-22T04:18:33;6.93;;;5.82;;
75012;SDS011;63567;49.956;20.130;2023-06-22T04:20:58;6.97;;;5.87;;
75012;SDS011;63567;49.956;20.130;2023-06-22T04:23:23;6.67;;;5.63;;
75012;SDS011;63567;49.956;20.130;2023-06-22T04:25:49;6.93;;;5.90;;
75012;SDS011;63567;49.956;20.130;2023-06-22T04:28:14;7.70;;;5.80;;
75012;SDS011;63567;49.956;20.130;2023-06-22T04:30:39;7.80;;;6.77;;
75012;SDS011;63567;49.956;20.130;2023-06-22T04:33:11;8.32;;;5.68;;
75012;SDS011;63567;49.956;20.130;2023-06-22T04:35:40;9.07;;;6.03;;
75012;SDS011;63567;49.956;20.130;2023-06-22T04:38:08;8.23;;;6.60;;
75012;SDS011;63567;49.956;20.130;2023-06-22T04:40:34;7.57;;;6.03;;
75012;SDS011;63567;49.956;20.130;2023-06-22T04:42:59;7.25;;;6.55;;
75012;SDS011;63567;49.956;20.130;2023-06-22T04:45:27;7.50;;;6.70;;
75012;SDS011;63567;49.956;20.130;2023-06-22T04:47:53;9.23;;;7.20;;
75012;SDS011;63567;49.956;20.130;2023-06-22T04:50:18;9.73;;;6.70;;
75012;SDS011;63567;49.956;20.130;2023-06-22T04:52:46;8.48;;;6.88;;
75012;SDS011;63567;49.956;20.130;2023-06-22T04:55:11;7.70;;;6.45;;
75012;SDS011;63567;49.956;20.130;2023-06-22T04:57:36;7.30;;;6.53;;
75012;SDS011;63567;49.956;20.130;2023-06-22T05:00:04;8.52;;;7.25;;
75012;SDS011;63567;49.956;20.130;2023-06-22T05:02:40;8.90;;;7.53;;
75012;SDS011;63567;49.956;20.130;2023-06-22T05:05:05;8.57;;;6.78;;
75012;SDS011;63567;49.956;20.130;2023-06-22T05:07:31;8.43;;;7.38;;
75012;SDS011;63567;49.956;20.130;2023-06-22T05:09:57;7.90;;;6.38;;
75012;SDS011;63567;49.956;20.130;2023-06-22T05:12:22;8.27;;;7.10;;
75012;SDS011;63567;49.956;20.130;2023-06-22T05:14:47;8.07;;;6.47;;
75012;SDS011;63567;49.956;20.130;2023-06-22T05:17:13;8.70;;;7.23;;
75012;SDS011;63567;49.956;20.130;2023-06-22T05:19:39;8.63;;;7.13;;
75012;SDS011;63567;49.956;20.130;2023-06-22T05:22:04;9.43;;;7.65;;
75012;SDS011;63567;49.956;20.130;2023-06-22T05:24:31;9.18;;;7.18;;
75012;SDS011;63567;49.956;20.130;2023-06-22T05:26:56;9.03;;;6.87;;
75012;SDS011;63567;49.956;20.130;2023-06-22T05:29:22;10.00;;;8.50;;
75012;SDS011;63567;49.956;20.130;2023-06-22T05:31:48;8.48;;;7.45;;
75012;SDS011;63567;49.956;20.130;2023-06-22T05:34:14;8.63;;;7.72;;
75012;SDS011;63567;49.956;20.130;2023-06-22T05:36:39;8.90;;;8.00;;
75012;SDS011;63567;49.956;20.130;2023-06-22T05:39:11;10.50;;;8.53;;
75012;SDS011;63567;49.956;20.130;2023-06-22T05:41:38;12.93;;;8.10;;
75012;SDS011;63567;49.956;20.130;2023-06-22T05:44:03;9.03;;;7.07;;
75012;SDS011;63567;49.956;20.130;2023-06-22T05:46:29;9.90;;;8.87;;
75012;SDS011;63567;49.956;20.130;2023-06-22T05:48:54;10.87;;;8.13;;
75012;SDS011;63567;49.956;20.130;2023-06-22T05:51:19;10.57;;;8.67;;
75012;SDS011;63567;49.956;20.130;2023-06-22T05:53:44;10.23;;;9.23;;
75012;SDS011;63567;49.956;20.130;2023-06-22T05:56:14;10.63;;;9.45;;
75012;SDS011;63567;49.956;20.130;2023-06-22T05:58:39;10.73;;;7.60;;
75012;SDS011;63567;49.956;20.130;2023-06-22T06:01:04;10.53;;;9.00;;
75012;SDS011;63567;49.956;20.130;2023-06-22T06:03:30;11.27;;;8.57;;
75012;SDS011;63567;49.956;20.130;2023-06-22T06:05:55;10.93;;;9.73;;
75012;SDS011;63567;49.956;20.130;2023-06-22T06:08:20;10.85;;;7.68;;
75012;SDS011;63567;49.956;20.130;2023-06-22T06:10:46;12.00;;;9.98;;
75012;SDS011;63567;49.956;20.130;2023-06-22T06:13:11;13.70;;;9.40;;
75012;SDS011;63567;49.956;20.130;2023-06-22T06:15:37;14.13;;;11.83;;
75012;SDS011;63567;49.956;20.130;2023-06-22T06:18:02;16.40;;;11.07;;
75012;SDS011;63567;49.956;20.130;2023-06-22T06:20:30;16.50;;;13.23;;
75012;SDS011;63567;49.956;20.130;2023-06-22T06:22:56;16.95;;;11.77;;
75012;SDS011;63567;49.956;20.130;2023-06-22T06:25:21;14.45;;;12.60;;
75012;SDS011;63567;49.956;20.130;2023-06-22T06:27:47;15.95;;;13.57;;
75012;SDS011;63567;49.956;20.130;2023-06-22T06:30:14;14.55;;;13.02;;
75012;SDS011;63567;49.956;20.130;2023-06-22T06:32:40;13.18;;;11.60;;
75012;SDS011;63567;49.956;20.130;2023-06-22T06:35:07;16.10;;;12.27;;
75012;SDS011;63567;49.956;20.130;2023-06-22T06:37:36;14.55;;;12.80;;
75012;SDS011;63567;49.956;20.130;2023-06-22T06:40:03;13.65;;;11.18;;
75012;SDS011;63567;49.956;20.130;2023-06-22T06:42:35;14.60;;;12.50;;
75012;SDS011;63567;49.956;20.130;2023-06-22T06:45:02;17.27;;;13.43;;
75012;SDS011;63567;49.956;20.130;2023-06-22T06:47:28;16.95;;;15.25;;
75012;SDS011;63567;49.956;20.130;2023-06-22T06:49:53;16.07;;;13.20;;
75012;SDS011;63567;49.956;20.130;2023-06-22T06:52:18;16.20;;;13.75;;
75012;SDS011;63567;49.956;20.130;2023-06-22T06:54:44;18.10;;;15.18;;
75012;SDS011;63567;49.956;20.130;2023-06-22T06:57:10;16.50;;;14.10;;
75012;SDS011;63567;49.956;20.130;2023-06-22T06:59:38;15.85;;;13.25;;
75012;SDS011;63567;49.956;20.130;2023-06-22T07:02:03;14.27;;;12.77;;
75012;SDS011;63567;49.956;20.130;2023-06-22T07:04:29;17.95;;;13.90;;
75012;SDS011;63567;49.956;20.130;2023-06-22T07:06:54;17.23;;;15.63;;
75012;SDS011;63567;49.956;20.130;2023-06-22T07:09:20;16.90;;;13.90;;
75012;SDS011;63567;49.956;20.130;2023-06-22T07:11:45;14.70;;;13.07;;
75012;SDS011;63567;49.956;20.130;2023-06-22T07:14:10;15.47;;;13.83;;
75012;SDS011;63567;49.956;20.130;2023-06-22T07:16:35;13.70;;;12.33;;
75012;SDS011;63567;49.956;20.130;2023-06-22T07:19:01;15.73;;;13.93;;
75012;SDS011;63567;49.956;20.130;2023-06-22T07:21:26;17.43;;;15.67;;
75012;SDS011;63567;49.956;20.130;2023-06-22T07:23:51;16.07;;;14.17;;
75012;SDS011;63567;49.956;20.130;2023-06-22T07:26:17;16.38;;;14.65;;
75012;SDS011;63567;49.956;20.130;2023-06-22T07:28:42;16.97;;;15.00;;
75012;SDS011;63567;49.956;20.130;2023-06-22T07:31:07;16.17;;;14.07;;
75012;SDS011;63567;49.956;20.130;2023-06-22T07:33:33;17.17;;;15.53;;
75012;SDS011;63567;49.956;20.130;2023-06-22T07:35:58;15.70;;;14.13;;
75012;SDS011;63567;49.956;20.130;2023-06-22T07:38:23;16.57;;;14.37;;
75012;SDS011;63567;49.956;20.130;2023-06-22T07:40:49;19.53;;;16.40;;
75012;SDS011;63567;49.956;20.130;2023-06-22T07:43:15;19.88;;;17.98;;
75012;SDS011;63567;49.956;20.130;2023-06-22T07:45:41;19.80;;;17.93;;
75012;SDS011;63567;49.956;20.130;2023-06-22T07:48:16;21.85;;;19.63;;
75012;SDS011;63567;49.956;20.130;2023-06-22T07:50:42;20.83;;;18.70;;
75012;SDS011;63567;49.956;20.130;2023-06-22T07:53:07;22.00;;;19.70;;
75012;SDS011;63567;49.956;20.130;2023-06-22T07:55:32;23.67;;;21.37;;
75012;SDS011;63567;49.956;20.130;2023-06-22T07:57:57;23.80;;;21.43;;
75012;SDS011;63567;49.956;20.130;2023-06-22T08:00:23;25.07;;;22.57;;
75012;SDS011;63567;49.956;20.130;2023-06-22T08:02:48;25.45;;;23.17;;
75012;SDS011;63567;49.956;20.130;2023-06-22T08:05:14;28.50;;;25.83;;
75012;SDS011;63567;49.956;20.130;2023-06-22T08:07:40;27.15;;;24.65;;
75012;SDS011;63567;49.956;20.130;2023-06-22T08:10:06;27.38;;;24.67;;
75012;SDS011;63567;49.956;20.130;2023-06-22T08:12:35;29.52;;;26.77;;
75012;SDS011;63567;49.956;20.130;2023-06-22T08:15:00;26.70;;;24.00;;
75012;SDS011;63567;49.956;20.130;2023-06-22T08:17:25;28.73;;;25.83;;
75012;SDS011;63567;49.956;20.130;2023-06-22T08:19:51;25.70;;;23.00;;
75012;SDS011;63567;49.956;20.130;2023-06-22T08:22:16;28.13;;;25.53;;
75012;SDS011;63567;49.956;20.130;2023-06-22T08:24:42;27.52;;;24.77;;
75012;SDS011;63567;49.956;20.130;2023-06-22T08:27:07;27.10;;;24.27;;
75012;SDS011;63567;49.956;20.130;2023-06-22T08:29:40;26.35;;;23.85;;
75012;SDS011;63567;49.956;20.130;2023-06-22T08:32:10;25.00;;;22.60;;
75012;SDS011;63567;49.956;20.130;2023-06-22T08:34:36;27.52;;;24.80;;
75012;SDS011;63567;49.956;20.130;2023-06-22T08:37:01;29.30;;;26.55;;
75012;SDS011;63567;49.956;20.130;2023-06-22T08:39:31;27.58;;;24.77;;
75012;SDS011;63567;49.956;20.130;2023-06-22T08:41:57;27.15;;;24.45;;
75012;SDS011;63567;49.956;20.130;2023-06-22T08:44:22;30.03;;;27.20;;
75012;SDS011;63567;49.956;20.130;2023-06-22T08:46:47;26.40;;;23.90;;
75012;SDS011;63567;49.956;20.130;2023-06-22T08:49:12;24.87;;;22.37;;
75012;SDS011;63567;49.956;20.130;2023-06-22T08:51:38;28.47;;;25.67;;
75012;SDS011;63567;49.956;20.130;2023-06-22T08:54:03;30.83;;;28.23;;
75012;SDS011;63567;49.956;20.130;2023-06-22T08:56:28;27.13;;;24.53;;
75012;SDS011;63567;49.956;20.130;2023-06-22T08:58:53;28.70;;;26.00;;
75012;SDS011;63567;49.956;20.130;2023-06-22T09:01:19;29.87;;;27.07;;
75012;SDS011;63567;49.956;20.130;2023-06-22T09:03:44;28.27;;;25.67;;
75012;SDS011;63567;49.956;20.130;2023-06-22T09:06:09;28.40;;;25.90;;
75012;SDS011;63567;49.956;20.130;2023-06-22T09:08:35;31.43;;;28.73;;
75012;SDS011;63567;49.956;20.130;2023-06-22T09:11:01;25.33;;;23.02;;
75012;SDS011;63567;49.956;20.130;2023-06-22T09:13:27;31.08;;;28.45;;
75012;SDS011;63567;49.956;20.130;2023-06-22T09:15:55;29.13;;;26.65;;
75012;SDS011;63567;49.956;20.130;2023-06-22T09:18:20;29.30;;;26.70;;
75012;SDS011;63567;49.956;20.130;2023-06-22T09:20:45;25.73;;;23.50;;
75012;SDS011;63567;49.956;20.130;2023-06-22T09:23:11;27.65;;;25.33;;
75012;SDS011;63567;49.956;20.130;2023-06-22T09:25:36;23.07;;;21.07;;
75012;SDS011;63567;49.956;20.130;2023-06-22T09:28:01;25.13;;;23.13;;
75012;SDS011;63567;49.956;20.130;2023-06-22T09:30:27;27.15;;;25.05;;
75012;SDS011;63567;49.956;20.130;2023-06-22T09:32:52;24.20;;;22.23;;
75012;SDS011;63567;49.956;20.130;2023-06-22T09:35:17;23.70;;;21.83;;
75012;SDS011;63567;49.956;20.130;2023-06-22T09:37:42;23.50;;;21.70;;
75012;SDS011;63567;49.956;20.130;2023-06-22T09:40:08;21.20;;;19.50;;
75012;SDS011;63567;49.956;20.130;2023-06-22T09:42:35;20.98;;;19.38;;
75012;SDS011;63567;49.956;20.130;2023-06-22T09:45:00;22.02;;;20.33;;
75012;SDS011;63567;49.956;20.130;2023-06-22T09:47:26;17.58;;;16.27;;
75012;SDS011;63567;49.956;20.130;2023-06-22T09:49:52;19.92;;;18.52;;
75012;SDS011;63567;49.956;20.130;2023-06-22T09:52:18;22.40;;;20.80;;
75012;SDS011;63567;49.956;20.130;2023-06-22T09:54:43;23.37;;;21.43;;
75012;SDS011;63567;49.956;20.130;2023-06-22T09:57:08;21.60;;;19.90;;
75012;SDS011;63567;49.956;20.130;2023-06-22T09:59:33;20.57;;;18.87;;
75012;SDS011;63567;49.956;20.130;2023-06-22T10:01:59;22.33;;;20.57;;
75012;SDS011;63567;49.956;20.130;2023-06-22T10:04:24;24.23;;;22.43;;
75012;SDS011;63567;49.956;20.130;2023-06-22T10:06:50;24.98;;;23.08;;
75012;SDS011;63567;49.956;20.130;2023-06-22T10:09:15;24.57;;;22.67;;
75012;SDS011;63567;49.956;20.130;2023-06-22T10:11:41;26.33;;;24.30;;
75012;SDS011;63567;49.956;20.130;2023-06-22T10:14:06;25.20;;;22.97;;
75012;SDS011;63567;49.956;20.130;2023-06-22T10:16:31;31.07;;;29.07;;
75012;SDS011;63567;49.956;20.130;2023-06-22T10:18:57;27.77;;;25.77;;
75012;SDS011;63567;49.956;20.130;2023-06-22T10:21:22;27.17;;;25.27;;
75012;SDS011;63567;49.956;20.130;2023-06-22T10:23:47;25.20;;;23.40;;
75012;SDS011;63567;49.956;20.130;2023-06-22T10:26:13;27.97;;;26.07;;
75012;SDS011;63567;49.956;20.130;2023-06-22T10:28:38;24.30;;;22.70;;
75012;SDS011;63567;49.956;20.130;2023-06-22T10:31:03;23.17;;;21.57;;
75012;SDS011;63567;49.956;20.130;2023-06-22T10:33:29;29.17;;;27.40;;
75012;SDS011;63567;49.956;20.130;2023-06-22T10:35:54;22.40;;;20.80;;
75012;SDS011;63567;49.956;20.130;2023-06-22T10:38:20;25.80;;;24.08;;
75012;SDS011;63567;49.956;20.130;2023-06-22T10:40:45;23.13;;;21.43;;
75012;SDS011;63567;49.956;20.130;2023-06-22T10:43:10;25.95;;;24.15;;
75012;SDS011;63567;49.956;20.130;2023-06-22T10:45:35;24.33;;;22.83;;
75012;SDS011;63567;49.956;20.130;2023-06-22T10:48:01;27.00;;;25.30;;
75012;SDS011;63567;49.956;20.130;2023-06-22T10:50:26;18.50;;;17.10;;
75012;SDS011;63567;49.956;20.130;2023-06-22T10:52:52;24.80;;;23.23;;
75012;SDS011;63567;49.956;20.130;2023-06-22T10:55:17;25.33;;;23.63;;
75012;SDS011;63567;49.956;20.130;2023-06-22T10:57:42;28.17;;;26.48;;
75012;SDS011;63567;49.956;20.130;2023-06-22T11:00:09;29.73;;;28.13;;
75012;SDS011;63567;49.956;20.130;2023-06-22T11:02:36;25.05;;;23.40;;
75012;SDS011;63567;49.956;20.130;2023-06-22T11:05:01;23.47;;;21.93;;
75012;SDS011;63567;49.956;20.130;2023-06-22T11:07:28;22.30;;;20.80;;
75012;SDS011;63567;49.956;20.130;2023-06-22T11:09:54;24.50;;;23.00;;
75012;SDS011;63567;49.956;20.130;2023-06-22T11:12:19;27.38;;;25.67;;
75012;SDS011;63567;49.956;20.130;2023-06-22T11:14:44;27.77;;;26.10;;
75012;SDS011;63567;49.956;20.130;2023-06-22T11:17:09;31.20;;;29.60;;
75012;SDS011;63567;49.956;20.130;2023-06-22T11:19:35;26.70;;;25.00;;
75012;SDS011;63567;49.956;20.130;2023-06-22T11:22:01;28.27;;;26.77;;
75012;SDS011;63567;49.956;20.130;2023-06-22T11:24:26;28.87;;;27.20;;
75012;SDS011;63567;49.956;20.130;2023-06-22T11:26:51;29.77;;;28.07;;
75012;SDS011;63567;49.956;20.130;2023-06-22T11:29:17;27.13;;;25.67;;
75012;SDS011;63567;49.956;20.130;2023-06-22T11:31:42;28.38;;;26.83;;
75012;SDS011;63567;49.956;20.130;2023-06-22T11:34:08;24.70;;;23.20;;
75012;SDS011;63567;49.956;20.130;2023-06-22T11:36:34;33.72;;;31.80;;
75012;SDS011;63567;49.956;20.130;2023-06-22T11:39:00;34.75;;;32.92;;
75012;SDS011;63567;49.956;20.130;2023-06-22T11:41:26;31.05;;;29.35;;
75012;SDS011;63567;49.956;20.130;2023-06-22T11:43:51;27.20;;;25.67;;
75012;SDS011;63567;49.956;20.130;2023-06-22T11:46:16;30.60;;;29.10;;
75012;SDS011;63567;49.956;20.130;2023-06-22T11:48:41;22.07;;;20.87;;
75012;SDS011;63567;49.956;20.130;2023-06-22T11:51:07;29.07;;;27.57;;
75012;SDS011;63567;49.956;20.130;2023-06-22T11:53:33;32.53;;;30.83;;
75012;SDS011;63567;49.956;20.130;2023-06-22T11:55:59;38.45;;;36.75;;
75012;SDS011;63567;49.956;20.130;2023-06-22T11:58:25;37.25;;;35.50;;
75012;SDS011;63567;49.956;20.130;2023-06-22T12:00:50;32.97;;;31.20;;
75012;SDS011;63567;49.956;20.130;2023-06-22T12:03:16;30.20;;;28.52;;
75012;SDS011;63567;49.956;20.130;2023-06-22T12:05:42;29.23;;;27.63;;
75012;SDS011;63567;49.956;20.130;2023-06-22T12:08:07;42.90;;;41.03;;
75012;SDS011;63567;49.956;20.130;2023-06-22T12:10:32;39.90;;;38.10;;
75012;SDS011;63567;49.956;20.130;2023-06-22T12:12:59;36.75;;;35.05;;
75012;SDS011;63567;49.956;20.130;2023-06-22T12:15:25;31.42;;;29.80;;
75012;SDS011;63567;49.956;20.130;2023-06-22T12:17:51;47.75;;;45.58;;
75012;SDS011;63567;49.956;20.130;2023-06-22T12:20:16;42.97;;;41.07;;
75012;SDS011;63567;49.956;20.130;2023-06-22T12:22:41;49.80;;;47.83;;
75012;SDS011;63567;49.956;20.130;2023-06-22T12:25:10;39.87;;;38.07;;
75012;SDS011;63567;49.956;20.130;2023-06-22T12:27:35;35.28;;;33.50;;
75012;SDS011;63567;49.956;20.130;2023-06-22T12:30:01;46.03;;;44.00;;
75012;SDS011;63567;49.956;20.130;2023-06-22T12:32:27;30.67;;;29.17;;
75012;SDS011;63567;49.956;20.130;2023-06-22T12:34:53;41.37;;;39.47;;
75012;SDS011;63567;49.956;20.130;2023-06-22T12:37:18;33.10;;;31.40;;
75012;SDS011;63567;49.956;20.130;2023-06-22T12:39:43;34.57;;;32.90;;
75012;SDS011;63567;49.956;20.130;2023-06-22T12:42:09;36.47;;;34.67;;
75012;SDS011;63567;49.956;20.130;2023-06-22T12:44:37;23.20;;;21.80;;
75012;SDS011;63567;49.956;20.130;2023-06-22T12:47:03;32.63;;;31.02;;
75012;SDS011;63567;49.956;20.130;2023-06-22T12:49:28;27.02;;;25.42;;
75012;SDS011;63567;49.956;20.130;2023-06-22T12:51:53;39.47;;;37.73;;
75012;SDS011;63567;49.956;20.130;2023-06-22T12:54:18;31.80;;;30.20;;
75012;SDS011;63567;49.956;20.130;2023-06-22T12:56:44;34.17;;;32.37;;
75012;SDS011;63567;49.956;20.130;2023-06-22T12:59:10;30.02;;;28.50;;
75012;SDS011;63567;49.956;20.130;2023-06-22T13:01:35;37.13;;;35.35;;
75012;SDS011;63567;49.956;20.130;2023-06-22T13:04:01;29.73;;;28.02;;
75012;SDS011;63567;49.956;20.130;2023-06-22T13:06:28;35.70;;;34.15;;
75012;SDS011;63567;49.956;20.130;2023-06-22T13:08:53;36.08;;;34.53;;
75012;SDS011;63567;49.956;20.130;2023-06-22T13:11:19;41.23;;;39.43;;
75012;SDS011;63567;49.956;20.130;2023-06-22T13:13:44;38.88;;;37.15;;
75012;SDS011;63567;49.956;20.130;2023-06-22T13:16:10;31.15;;;29.75;;
75012;SDS011;63567;49.956;20.130;2023-06-22T13:18:35;33.67;;;32.10;;
75012;SDS011;63567;49.956;20.130;2023-06-22T13:21:03;44.37;;;42.60;;
75012;SDS011;63567;49.956;20.130;2023-06-22T13:23:29;35.60;;;33.90;;
75012;SDS011;63567;49.956;20.130;2023-06-22T13:25:54;33.33;;;31.85;;
75012;SDS011;63567;49.956;20.130;2023-06-22T13:28:20;35.33;;;33.73;;
75012;SDS011;63567;49.956;20.130;2023-06-22T13:30:45;37.72;;;35.92;;
75012;SDS011;63567;49.956;20.130;2023-06-22T13:33:12;38.13;;;36.53;;
75012;SDS011;63567;49.956;20.130;2023-06-22T13:35:38;33.50;;;32.05;;
75012;SDS011;63567;49.956;20.130;2023-06-22T13:38:03;45.42;;;43.70;;
75012;SDS011;63567;49.956;20.130;2023-06-22T13:40:29;48.00;;;46.10;;
75012;SDS011;63567;49.956;20.130;2023-06-22T13:42:54;34.77;;;33.20;;
75012;SDS011;63567;49.956;20.130;2023-06-22T13:45:20;52.33;;;50.30;;
75012;SDS011;63567;49.956;20.130;2023-06-22T13:47:45;34.63;;;33.13;;
75012;SDS011;63567;49.956;20.130;2023-06-22T13:50:10;54.17;;;52.00;;
75012;SDS011;63567;49.956;20.130;2023-06-22T13:52:37;52.78;;;50.85;;
75012;SDS011;63567;49.956;20.130;2023-06-22T13:55:03;53.40;;;51.50;;
75012;SDS011;63567;49.956;20.130;2023-06-22T13:57:29;41.72;;;39.97;;
75012;SDS011;63567;49.956;20.130;2023-06-22T13:59:55;48.03;;;46.13;;
75012;SDS011;63567;49.956;20.130;2023-06-22T14:02:20;52.00;;;50.00;;
75012;SDS011;63567;49.956;20.130;2023-06-22T14:04:45;46.20;;;44.50;;
75012;SDS011;63567;49.956;20.130;2023-06-22T14:07:10;51.00;;;49.10;;
75012;SDS011;63567;49.956;20.130;2023-06-22T14:09:36;51.10;;;49.03;;
75012;SDS011;63567;49.956;20.130;2023-06-22T14:12:04;60.60;;;58.30;;